sensor_id;sensor_type;location;lat;lon;timestamp;P1;durP1;ratioP1;P2;durP2;ratioP2
12956;SDS011;6543;48.836;10.092;2023-02-19T00:01:37;5.67;;;5.27;;
12956;SDS011;6543;48.836;10.092;2023-02-19T00:04:05;5.30;;;4.80;;
12956;SDS011;6543;48.836;10.092;2023-02-19T00:06:35;6.47;;;5.97;;
12956;SDS011;6543;48.836;10.092;2023-02-19T00:09:02;5.33;;;4.93;;
12956;SDS011;6543;48.836;10.092;2023-02-19T00:11:30;5.73;;;5.33;;
12956;SDS011;6543;48.836;10.092;2023-02-19T00:13:58;5.73;;;5.23;;
12956;SDS011;6543;48.836;10.092;2023-02-19T00:16:27;6.97;;;6.10;;
12956;SDS011;6543;48.836;10.092;2023-02-19T00:18:55;6.53;;;6.03;;
12956;SDS011;6543;48.836;10.092;2023-02-19T00:21:23;5.80;;;5.20;;
12956;SDS011;6543;48.836;10.092;2023-02-19T00:23:53;6.10;;;5.60;;
12956;SDS011;6543;48.836;10.092;2023-02-19T00:26:21;7.03;;;5.83;;
12956;SDS011;6543;48.836;10.092;2023-02-19T00:28:48;6.17;;;5.67;;
12956;SDS011;6543;48.836;10.092;2023-02-19T00:31:17;6.00;;;5.50;;
12956;SDS011;6543;48.836;10.092;2023-02-19T00:33:45;6.30;;;5.70;;
12956;SDS011;6543;48.836;10.092;2023-02-19T00:36:13;7.20;;;6.60;;
12956;SDS011;6543;48.836;10.092;2023-02-19T00:38:41;6.00;;;5.50;;
12956;SDS011;6543;48.836;10.092;2023-02-19T00:41:11;6.20;;;5.60;;
12956;SDS011;6543;48.836;10.092;2023-02-19T00:43:45;5.00;;;4.60;;
12956;SDS011;6543;48.836;10.092;2023-02-19T00:46:14;6.53;;;6.03;;
12956;SDS011;6543;48.836;10.092;2023-02-19T00:48:41;7.30;;;6.60;;
12956;SDS011;6543;48.836;10.092;2023-02-19T00:51:08;6.73;;;6.13;;
12956;SDS011;6543;48.836;10.092;2023-02-19T00:53:35;6.70;;;6.00;;
12956;SDS011;6543;48.836;10.092;2023-02-19T00:56:02;6.50;;;6.00;;
12956;SDS011;6543;48.836;10.092;2023-02-19T00:58:30;6.83;;;6.20;;
12956;SDS011;6543;48.836;10.092;2023-02-19T01:00:57;6.77;;;6.17;;
12956;SDS011;6543;48.836;10.092;2023-02-19T01:03:24;7.03;;;6.43;;
12956;SDS011;6543;48.836;10.092;2023-02-19T01:05:51;7.23;;;6.63;;
12956;SDS011;6543;48.836;10.092;2023-02-19T01:08:19;6.60;;;6.00;;
12956;SDS011;6543;48.836;10.092;2023-02-19T01:10:46;6.80;;;6.27;;
12956;SDS011;6543;48.836;10.092;2023-02-19T01:13:13;7.17;;;6.47;;
12956;SDS011;6543;48.836;10.092;2023-02-19T01:15:41;8.67;;;7.77;;
12956;SDS011;6543;48.836;10.092;2023-02-19T01:18:08;7.60;;;6.90;;
12956;SDS011;6543;48.836;10.092;2023-02-19T01:20:36;8.23;;;7.50;;
12956;SDS011;6543;48.836;10.092;2023-02-19T01:23:04;7.50;;;6.80;;
12956;SDS011;6543;48.836;10.092;2023-02-19T01:25:30;8.10;;;7.30;;
12956;SDS011;6543;48.836;10.092;2023-02-19T01:27:57;7.60;;;6.90;;
12956;SDS011;6543;48.836;10.092;2023-02-19T01:30:24;7.70;;;7.10;;
12956;SDS011;6543;48.836;10.092;2023-02-19T01:32:52;8.80;;;8.00;;
12956;SDS011;6543;48.836;10.092;2023-02-19T01:35:19;8.37;;;7.57;;
12956;SDS011;6543;48.836;10.092;2023-02-19T01:37:46;9.23;;;8.33;;
12956;SDS011;6543;48.836;10.092;2023-02-19T01:40:13;6.67;;;6.07;;
12956;SDS011;6543;48.836;10.092;2023-02-19T01:42:41;8.17;;;7.47;;
12956;SDS011;6543;48.836;10.092;2023-02-19T01:47:49;6.97;;;6.27;;
12956;SDS011;6543;48.836;10.092;2023-02-19T01:50:27;9.17;;;8.30;;
12956;SDS011;6543;48.836;10.092;2023-02-19T01:52:58;7.90;;;7.20;;
12956;SDS011;6543;48.836;10.092;2023-02-19T01:55:28;8.40;;;7.60;;
12956;SDS011;6543;48.836;10.092;2023-02-19T01:57:55;6.33;;;5.77;;
12956;SDS011;6543;48.836;10.092;2023-02-19T02:00:22;8.40;;;6.87;;
12956;SDS011;6543;48.836;10.092;2023-02-19T02:02:50;7.27;;;6.67;;
12956;SDS011;6543;48.836;10.092;2023-02-19T02:05:23;8.17;;;7.27;;
12956;SDS011;6543;48.836;10.092;2023-02-19T02:08:00;5.90;;;5.40;;
12956;SDS011;6543;48.836;10.092;2023-02-19T02:10:46;6.83;;;6.23;;
12956;SDS011;6543;48.836;10.092;2023-02-19T02:13:13;6.57;;;5.97;;
12956;SDS011;6543;48.836;10.092;2023-02-19T02:15:43;10.00;;;7.10;;
12956;SDS011;6543;48.836;10.092;2023-02-19T02:18:17;7.47;;;6.87;;
12956;SDS011;6543;48.836;10.092;2023-02-19T02:21:02;6.23;;;5.67;;
12956;SDS011;6543;48.836;10.092;2023-02-19T02:23:46;7.00;;;6.40;;
12956;SDS011;6543;48.836;10.092;2023-02-19T02:26:31;7.90;;;7.10;;
12956;SDS011;6543;48.836;10.092;2023-02-19T02:29:19;6.77;;;6.17;;
12956;SDS011;6543;48.836;10.092;2023-02-19T02:31:58;5.47;;;5.07;;
12956;SDS011;6543;48.836;10.092;2023-02-19T02:34:33;5.87;;;5.37;;
12956;SDS011;6543;48.836;10.092;2023-02-19T02:37:06;6.83;;;6.13;;
12956;SDS011;6543;48.836;10.092;2023-02-19T02:39:34;6.63;;;5.57;;
12956;SDS011;6543;48.836;10.092;2023-02-19T02:42:03;5.93;;;4.83;;
12956;SDS011;6543;48.836;10.092;2023-02-19T02:44:47;6.07;;;5.57;;
12956;SDS011;6543;48.836;10.092;2023-02-19T02:47:30;6.40;;;5.70;;
12956;SDS011;6543;48.836;10.092;2023-02-19T02:50:08;7.10;;;4.50;;
12956;SDS011;6543;48.836;10.092;2023-02-19T02:52:38;5.40;;;4.97;;
12956;SDS011;6543;48.836;10.092;2023-02-19T02:55:25;5.47;;;5.00;;
12956;SDS011;6543;48.836;10.092;2023-02-19T02:57:59;4.87;;;4.50;;
12956;SDS011;6543;48.836;10.092;2023-02-19T03:00:26;5.30;;;4.80;;
12956;SDS011;6543;48.836;10.092;2023-02-19T03:03:15;6.83;;;5.00;;
12956;SDS011;6543;48.836;10.092;2023-02-19T03:05:45;4.93;;;4.53;;
12956;SDS011;6543;48.836;10.092;2023-02-19T03:08:19;5.90;;;4.23;;
12956;SDS011;6543;48.836;10.092;2023-02-19T03:10:50;6.03;;;4.60;;
12956;SDS011;6543;48.836;10.092;2023-02-19T03:13:21;5.17;;;4.67;;
12956;SDS011;6543;48.836;10.092;2023-02-19T03:16:19;5.13;;;4.63;;
12956;SDS011;6543;48.836;10.092;2023-02-19T03:19:10;4.73;;;4.20;;
12956;SDS011;6543;48.836;10.092;2023-02-19T03:21:46;4.63;;;4.23;;
12956;SDS011;6543;48.836;10.092;2023-02-19T03:24:17;4.27;;;3.43;;
12956;SDS011;6543;48.836;10.092;2023-02-19T03:27:06;4.63;;;4.23;;
12956;SDS011;6543;48.836;10.092;2023-02-19T03:29:36;4.03;;;3.60;;
12956;SDS011;6543;48.836;10.092;2023-02-19T03:32:06;3.63;;;3.27;;
12956;SDS011;6543;48.836;10.092;2023-02-19T03:34:38;3.93;;;3.63;;
12956;SDS011;6543;48.836;10.092;2023-02-19T03:37:09;5.50;;;4.70;;
12956;SDS011;6543;48.836;10.092;2023-02-19T03:39:41;5.73;;;3.60;;
12956;SDS011;6543;48.836;10.092;2023-02-19T03:42:14;3.40;;;3.20;;
12956;SDS011;6543;48.836;10.092;2023-02-19T03:44:52;3.73;;;3.43;;
12956;SDS011;6543;48.836;10.092;2023-02-19T03:47:33;4.40;;;4.10;;
12956;SDS011;6543;48.836;10.092;2023-02-19T03:50:11;4.20;;;3.80;;
12956;SDS011;6543;48.836;10.092;2023-02-19T03:52:45;3.77;;;3.47;;
12956;SDS011;6543;48.836;10.092;2023-02-19T03:55:21;3.23;;;2.93;;
12956;SDS011;6543;48.836;10.092;2023-02-19T03:57:52;4.03;;;3.63;;
12956;SDS011;6543;48.836;10.092;2023-02-19T04:00:23;3.37;;;3.10;;
12956;SDS011;6543;48.836;10.092;2023-02-19T04:02:58;3.17;;;2.77;;
12956;SDS011;6543;48.836;10.092;2023-02-19T04:05:33;4.13;;;3.83;;
12956;SDS011;6543;48.836;10.092;2023-02-19T04:08:06;3.83;;;3.53;;
12956;SDS011;6543;48.836;10.092;2023-02-19T04:10:37;4.13;;;3.80;;
12956;SDS011;6543;48.836;10.092;2023-02-19T04:13:05;3.47;;;3.17;;
12956;SDS011;6543;48.836;10.092;2023-02-19T04:15:38;3.50;;;3.23;;
12956;SDS011;6543;48.836;10.092;2023-02-19T04:18:09;3.87;;;3.57;;
12956;SDS011;6543;48.836;10.092;2023-02-19T04:20:41;2.93;;;2.73;;
12956;SDS011;6543;48.836;10.092;2023-02-19T04:23:10;3.70;;;3.40;;
12956;SDS011;6543;48.836;10.092;2023-02-19T04:25:38;2.63;;;2.43;;
12956;SDS011;6543;48.836;10.092;2023-02-19T04:28:10;2.23;;;2.13;;
12956;SDS011;6543;48.836;10.092;2023-02-19T04:30:40;2.60;;;2.40;;
12956;SDS011;6543;48.836;10.092;2023-02-19T04:33:07;2.50;;;2.30;;
12956;SDS011;6543;48.836;10.092;2023-02-19T04:35:34;2.03;;;1.67;;
12956;SDS011;6543;48.836;10.092;2023-02-19T04:38:03;2.10;;;2.00;;
12956;SDS011;6543;48.836;10.092;2023-02-19T04:40:30;1.50;;;1.37;;
12956;SDS011;6543;48.836;10.092;2023-02-19T04:42:56;1.80;;;1.70;;
12956;SDS011;6543;48.836;10.092;2023-02-19T04:45:23;0.97;;;0.97;;
12956;SDS011;6543;48.836;10.092;2023-02-19T04:47:50;1.30;;;1.20;;
12956;SDS011;6543;48.836;10.092;2023-02-19T04:50:17;1.03;;;1.03;;
12956;SDS011;6543;48.836;10.092;2023-02-19T04:52:44;0.90;;;0.90;;
12956;SDS011;6543;48.836;10.092;2023-02-19T04:55:12;1.00;;;0.90;;
12956;SDS011;6543;48.836;10.092;2023-02-19T04:57:39;0.70;;;0.70;;
12956;SDS011;6543;48.836;10.092;2023-02-19T05:00:06;0.47;;;0.47;;
12956;SDS011;6543;48.836;10.092;2023-02-19T05:02:34;0.60;;;0.60;;
12956;SDS011;6543;48.836;10.092;2023-02-19T05:05:01;0.73;;;0.60;;
12956;SDS011;6543;48.836;10.092;2023-02-19T05:07:28;0.50;;;0.50;;
12956;SDS011;6543;48.836;10.092;2023-02-19T05:09:55;0.60;;;0.60;;
12956;SDS011;6543;48.836;10.092;2023-02-19T05:12:25;0.40;;;0.40;;
12956;SDS011;6543;48.836;10.092;2023-02-19T05:14:51;0.17;;;0.17;;
12956;SDS011;6543;48.836;10.092;2023-02-19T05:17:18;0.30;;;0.30;;
12956;SDS011;6543;48.836;10.092;2023-02-19T05:19:45;1.30;;;0.40;;
12956;SDS011;6543;48.836;10.092;2023-02-19T05:22:12;1.70;;;0.50;;
12956;SDS011;6543;48.836;10.092;2023-02-19T05:24:39;1.60;;;0.30;;
12956;SDS011;6543;48.836;10.092;2023-02-19T05:27:05;0.20;;;0.20;;
12956;SDS011;6543;48.836;10.092;2023-02-19T05:29:34;0.30;;;0.30;;
12956;SDS011;6543;48.836;10.092;2023-02-19T05:32:00;0.30;;;0.30;;
12956;SDS011;6543;48.836;10.092;2023-02-19T05:34:27;0.30;;;0.30;;
12956;SDS011;6543;48.836;10.092;2023-02-19T05:36:54;0.37;;;0.37;;
12956;SDS011;6543;48.836;10.092;2023-02-19T05:39:21;0.20;;;0.20;;
12956;SDS011;6543;48.836;10.092;2023-02-19T05:41:48;1.47;;;0.43;;
12956;SDS011;6543;48.836;10.092;2023-02-19T05:44:14;0.23;;;0.23;;
12956;SDS011;6543;48.836;10.092;2023-02-19T05:46:43;0.40;;;0.40;;
12956;SDS011;6543;48.836;10.092;2023-02-19T05:49:09;0.50;;;0.50;;
12956;SDS011;6543;48.836;10.092;2023-02-19T05:51:36;0.30;;;0.30;;
12956;SDS011;6543;48.836;10.092;2023-02-19T05:54:03;0.50;;;0.50;;
12956;SDS011;6543;48.836;10.092;2023-02-19T05:56:31;0.47;;;0.47;;
12956;SDS011;6543;48.836;10.092;2023-02-19T05:58:59;0.27;;;0.27;;
12956;SDS011;6543;48.836;10.092;2023-02-19T06:01:28;0.40;;;0.40;;
12956;SDS011;6543;48.836;10.092;2023-02-19T06:03:57;0.43;;;0.43;;
12956;SDS011;6543;48.836;10.092;2023-02-19T06:06:24;0.20;;;0.20;;
12956;SDS011;6543;48.836;10.092;2023-02-19T06:08:53;0.27;;;0.27;;
12956;SDS011;6543;48.836;10.092;2023-02-19T06:11:20;0.60;;;0.60;;
12956;SDS011;6543;48.836;10.092;2023-02-19T06:13:48;2.00;;;0.60;;
12956;SDS011;6543;48.836;10.092;2023-02-19T06:16:15;0.43;;;0.43;;
12956;SDS011;6543;48.836;10.092;2023-02-19T06:18:43;0.70;;;0.70;;
12956;SDS011;6543;48.836;10.092;2023-02-19T06:21:12;0.70;;;0.70;;
12956;SDS011;6543;48.836;10.092;2023-02-19T06:23:39;0.87;;;0.87;;
12956;SDS011;6543;48.836;10.092;2023-02-19T06:26:08;0.70;;;0.70;;
12956;SDS011;6543;48.836;10.092;2023-02-19T06:28:36;0.70;;;0.70;;
12956;SDS011;6543;48.836;10.092;2023-02-19T06:31:03;0.77;;;0.73;;
12956;SDS011;6543;48.836;10.092;2023-02-19T06:33:30;0.50;;;0.50;;
12956;SDS011;6543;48.836;10.092;2023-02-19T06:35:58;0.50;;;0.50;;
12956;SDS011;6543;48.836;10.092;2023-02-19T06:38:27;1.27;;;0.83;;
12956;SDS011;6543;48.836;10.092;2023-02-19T06:40:58;0.37;;;0.37;;
12956;SDS011;6543;48.836;10.092;2023-02-19T06:43:25;0.50;;;0.50;;
12956;SDS011;6543;48.836;10.092;2023-02-19T06:45:52;0.67;;;0.67;;
12956;SDS011;6543;48.836;10.092;2023-02-19T06:48:19;0.70;;;0.70;;
12956;SDS011;6543;48.836;10.092;2023-02-19T06:50:47;0.93;;;0.70;;
12956;SDS011;6543;48.836;10.092;2023-02-19T06:53:14;0.47;;;0.47;;
12956;SDS011;6543;48.836;10.092;2023-02-19T06:55:42;0.70;;;0.70;;
12956;SDS011;6543;48.836;10.092;2023-02-19T06:58:09;1.37;;;0.80;;
12956;SDS011;6543;48.836;10.092;2023-02-19T07:00:36;0.30;;;0.30;;
12956;SDS011;6543;48.836;10.092;2023-02-19T07:03:03;0.57;;;0.50;;
12956;SDS011;6543;48.836;10.092;2023-02-19T07:05:31;1.13;;;0.40;;
12956;SDS011;6543;48.836;10.092;2023-02-19T07:07:58;0.30;;;0.30;;
12956;SDS011;6543;48.836;10.092;2023-02-19T07:10:25;0.50;;;0.50;;
12956;SDS011;6543;48.836;10.092;2023-02-19T07:12:53;1.20;;;0.40;;
12956;SDS011;6543;48.836;10.092;2023-02-19T07:15:20;0.60;;;0.60;;
12956;SDS011;6543;48.836;10.092;2023-02-19T07:17:47;0.80;;;0.47;;
12956;SDS011;6543;48.836;10.092;2023-02-19T07:20:15;0.83;;;0.40;;
12956;SDS011;6543;48.836;10.092;2023-02-19T07:22:42;0.60;;;0.60;;
12956;SDS011;6543;48.836;10.092;2023-02-19T07:25:09;0.50;;;0.50;;
12956;SDS011;6543;48.836;10.092;2023-02-19T07:27:36;0.30;;;0.30;;
12956;SDS011;6543;48.836;10.092;2023-02-19T07:30:05;0.43;;;0.43;;
12956;SDS011;6543;48.836;10.092;2023-02-19T07:32:33;2.53;;;0.43;;
12956;SDS011;6543;48.836;10.092;2023-02-19T07:35:00;0.30;;;0.30;;
12956;SDS011;6543;48.836;10.092;2023-02-19T07:37:27;0.23;;;0.20;;
12956;SDS011;6543;48.836;10.092;2023-02-19T07:39:54;0.33;;;0.33;;
12956;SDS011;6543;48.836;10.092;2023-02-19T07:42:21;0.63;;;0.63;;
12956;SDS011;6543;48.836;10.092;2023-02-19T07:44:49;0.30;;;0.30;;
12956;SDS011;6543;48.836;10.092;2023-02-19T07:47:17;0.27;;;0.27;;
12956;SDS011;6543;48.836;10.092;2023-02-19T07:49:44;1.60;;;0.40;;
12956;SDS011;6543;48.836;10.092;2023-02-19T07:52:11;1.27;;;0.57;;
12956;SDS011;6543;48.836;10.092;2023-02-19T07:54:38;0.40;;;0.30;;
12956;SDS011;6543;48.836;10.092;2023-02-19T07:57:05;0.47;;;0.47;;
12956;SDS011;6543;48.836;10.092;2023-02-19T07:59:33;0.17;;;0.17;;
12956;SDS011;6543;48.836;10.092;2023-02-19T08:02:00;0.30;;;0.30;;
12956;SDS011;6543;48.836;10.092;2023-02-19T08:04:47;0.43;;;0.30;;
12956;SDS011;6543;48.836;10.092;2023-02-19T08:07:14;0.37;;;0.37;;
12956;SDS011;6543;48.836;10.092;2023-02-19T08:09:41;0.80;;;0.33;;
12956;SDS011;6543;48.836;10.092;2023-02-19T08:12:08;0.50;;;0.50;;
12956;SDS011;6543;48.836;10.092;2023-02-19T08:14:54;0.60;;;0.60;;
12956;SDS011;6543;48.836;10.092;2023-02-19T08:17:22;1.00;;;0.90;;
12956;SDS011;6543;48.836;10.092;2023-02-19T08:19:50;0.47;;;0.40;;
12956;SDS011;6543;48.836;10.092;2023-02-19T08:22:17;1.80;;;0.50;;
12956;SDS011;6543;48.836;10.092;2023-02-19T08:24:44;1.70;;;0.80;;
12956;SDS011;6543;48.836;10.092;2023-02-19T08:27:11;0.87;;;0.80;;
12956;SDS011;6543;48.836;10.092;2023-02-19T08:29:39;1.07;;;0.50;;
12956;SDS011;6543;48.836;10.092;2023-02-19T08:32:06;1.80;;;1.10;;
12956;SDS011;6543;48.836;10.092;2023-02-19T08:34:33;0.60;;;0.60;;
12956;SDS011;6543;48.836;10.092;2023-02-19T08:37:02;0.90;;;0.90;;
12956;SDS011;6543;48.836;10.092;2023-02-19T08:39:29;0.60;;;0.60;;
12956;SDS011;6543;48.836;10.092;2023-02-19T08:41:56;0.50;;;0.50;;
12956;SDS011;6543;48.836;10.092;2023-02-19T08:44:24;1.13;;;0.60;;
12956;SDS011;6543;48.836;10.092;2023-02-19T08:46:51;0.90;;;0.90;;
12956;SDS011;6543;48.836;10.092;2023-02-19T08:49:18;0.70;;;0.70;;
12956;SDS011;6543;48.836;10.092;2023-02-19T08:51:45;0.87;;;0.87;;
12956;SDS011;6543;48.836;10.092;2023-02-19T08:54:13;1.53;;;0.50;;
12956;SDS011;6543;48.836;10.092;2023-02-19T08:56:40;0.80;;;0.80;;
12956;SDS011;6543;48.836;10.092;2023-02-19T08:59:08;0.63;;;0.60;;
12956;SDS011;6543;48.836;10.092;2023-02-19T09:01:34;2.00;;;0.67;;
12956;SDS011;6543;48.836;10.092;2023-02-19T09:04:01;2.07;;;0.90;;
12956;SDS011;6543;48.836;10.092;2023-02-19T09:06:28;1.03;;;0.90;;
12956;SDS011;6543;48.836;10.092;2023-02-19T09:08:55;0.80;;;0.80;;
12956;SDS011;6543;48.836;10.092;2023-02-19T09:11:23;1.03;;;1.03;;
12956;SDS011;6543;48.836;10.092;2023-02-19T09:13:50;1.53;;;0.90;;
12956;SDS011;6543;48.836;10.092;2023-02-19T09:16:17;1.23;;;0.90;;
12956;SDS011;6543;48.836;10.092;2023-02-19T09:18:44;1.23;;;1.10;;
12956;SDS011;6543;48.836;10.092;2023-02-19T09:21:10;1.67;;;0.67;;
12956;SDS011;6543;48.836;10.092;2023-02-19T09:23:37;0.63;;;0.63;;
12956;SDS011;6543;48.836;10.092;2023-02-19T09:26:04;2.30;;;0.93;;
12956;SDS011;6543;48.836;10.092;2023-02-19T09:28:35;0.80;;;0.70;;
12956;SDS011;6543;48.836;10.092;2023-02-19T09:31:05;0.63;;;0.50;;
12956;SDS011;6543;48.836;10.092;2023-02-19T09:33:33;0.70;;;0.60;;
12956;SDS011;6543;48.836;10.092;2023-02-19T09:36:00;0.70;;;0.70;;
12956;SDS011;6543;48.836;10.092;2023-02-19T09:38:27;2.00;;;1.00;;
12956;SDS011;6543;48.836;10.092;2023-02-19T09:40:55;1.30;;;1.20;;
12956;SDS011;6543;48.836;10.092;2023-02-19T09:43:23;1.10;;;1.00;;
12956;SDS011;6543;48.836;10.092;2023-02-19T09:45:56;2.10;;;0.80;;
12956;SDS011;6543;48.836;10.092;2023-02-19T09:48:28;2.20;;;0.80;;
12956;SDS011;6543;48.836;10.092;2023-02-19T09:50:55;1.30;;;0.80;;
12956;SDS011;6543;48.836;10.092;2023-02-19T09:53:26;0.60;;;0.60;;
12956;SDS011;6543;48.836;10.092;2023-02-19T09:55:55;0.80;;;0.80;;
12956;SDS011;6543;48.836;10.092;2023-02-19T09:58:23;2.30;;;0.80;;
12956;SDS011;6543;48.836;10.092;2023-02-19T10:00:55;1.17;;;0.97;;
12956;SDS011;6543;48.836;10.092;2023-02-19T10:03:25;1.63;;;1.20;;
12956;SDS011;6543;48.836;10.092;2023-02-19T10:05:57;2.20;;;1.17;;
12956;SDS011;6543;48.836;10.092;2023-02-19T10:08:26;1.03;;;0.90;;
12956;SDS011;6543;48.836;10.092;2023-02-19T10:10:56;1.63;;;1.00;;
12956;SDS011;6543;48.836;10.092;2023-02-19T10:13:24;2.07;;;1.30;;
12956;SDS011;6543;48.836;10.092;2023-02-19T10:15:59;1.03;;;0.60;;
12956;SDS011;6543;48.836;10.092;2023-02-19T10:18:31;1.10;;;0.93;;
12956;SDS011;6543;48.836;10.092;2023-02-19T10:21:03;1.20;;;1.00;;
12956;SDS011;6543;48.836;10.092;2023-02-19T10:23:30;1.30;;;0.70;;
12956;SDS011;6543;48.836;10.092;2023-02-19T10:25:58;2.13;;;0.70;;
12956;SDS011;6543;48.836;10.092;2023-02-19T10:28:27;1.47;;;1.00;;
12956;SDS011;6543;48.836;10.092;2023-02-19T10:30:57;1.03;;;0.87;;
12956;SDS011;6543;48.836;10.092;2023-02-19T10:33:26;2.70;;;0.90;;
12956;SDS011;6543;48.836;10.092;2023-02-19T10:35:55;1.47;;;1.00;;
12956;SDS011;6543;48.836;10.092;2023-02-19T10:38:23;0.83;;;0.63;;
12956;SDS011;6543;48.836;10.092;2023-02-19T10:40:57;1.07;;;0.97;;
12956;SDS011;6543;48.836;10.092;2023-02-19T10:43:26;1.97;;;0.97;;
12956;SDS011;6543;48.836;10.092;2023-02-19T10:46:02;3.17;;;0.80;;
12956;SDS011;6543;48.836;10.092;2023-02-19T10:48:32;1.67;;;0.80;;
12956;SDS011;6543;48.836;10.092;2023-02-19T10:51:03;1.97;;;0.80;;
12956;SDS011;6543;48.836;10.092;2023-02-19T10:53:43;1.87;;;0.70;;
12956;SDS011;6543;48.836;10.092;2023-02-19T10:56:12;2.53;;;1.27;;
12956;SDS011;6543;48.836;10.092;2023-02-19T10:58:40;3.00;;;1.17;;
12956;SDS011;6543;48.836;10.092;2023-02-19T11:01:19;1.93;;;0.60;;
12956;SDS011;6543;48.836;10.092;2023-02-19T11:03:48;1.10;;;0.60;;
12956;SDS011;6543;48.836;10.092;2023-02-19T11:06:16;0.97;;;0.70;;
12956;SDS011;6543;48.836;10.092;2023-02-19T11:08:54;1.60;;;0.80;;
12956;SDS011;6543;48.836;10.092;2023-02-19T11:11:25;7.90;;;1.27;;
12956;SDS011;6543;48.836;10.092;2023-02-19T11:13:55;1.80;;;1.03;;
12956;SDS011;6543;48.836;10.092;2023-02-19T11:16:35;2.47;;;0.93;;
12956;SDS011;6543;48.836;10.092;2023-02-19T11:19:04;2.10;;;1.00;;
12956;SDS011;6543;48.836;10.092;2023-02-19T11:21:31;2.73;;;0.73;;
12956;SDS011;6543;48.836;10.092;2023-02-19T11:23:58;3.73;;;0.97;;
12956;SDS011;6543;48.836;10.092;2023-02-19T11:26:27;2.73;;;0.83;;
12956;SDS011;6543;48.836;10.092;2023-02-19T11:28:59;2.63;;;0.83;;
12956;SDS011;6543;48.836;10.092;2023-02-19T11:31:30;1.17;;;0.80;;
12956;SDS011;6543;48.836;10.092;2023-02-19T11:34:00;2.63;;;0.73;;
12956;SDS011;6543;48.836;10.092;2023-02-19T11:36:29;1.70;;;0.60;;
12956;SDS011;6543;48.836;10.092;2023-02-19T11:38:58;1.17;;;0.70;;
12956;SDS011;6543;48.836;10.092;2023-02-19T11:41:49;1.30;;;0.70;;
12956;SDS011;6543;48.836;10.092;2023-02-19T11:44:37;4.20;;;1.00;;
12956;SDS011;6543;48.836;10.092;2023-02-19T11:50:18;2.87;;;0.97;;
12956;SDS011;6543;48.836;10.092;2023-02-19T11:52:50;3.50;;;0.90;;
12956;SDS011;6543;48.836;10.092;2023-02-19T11:55:24;3.60;;;1.30;;
12956;SDS011;6543;48.836;10.092;2023-02-19T11:58:09;2.77;;;0.80;;
12956;SDS011;6543;48.836;10.092;2023-02-19T12:00:54;1.23;;;0.70;;
12956;SDS011;6543;48.836;10.092;2023-02-19T12:06:45;1.27;;;0.70;;
12956;SDS011;6543;48.836;10.092;2023-02-19T12:12:19;2.93;;;0.70;;
12956;SDS011;6543;48.836;10.092;2023-02-19T12:15:03;0.73;;;0.50;;
12956;SDS011;6543;48.836;10.092;2023-02-19T12:17:49;2.93;;;0.73;;
12956;SDS011;6543;48.836;10.092;2023-02-19T12:20:29;2.77;;;1.00;;
12956;SDS011;6543;48.836;10.092;2023-02-19T12:23:15;2.53;;;1.00;;
12956;SDS011;6543;48.836;10.092;2023-02-19T12:25:59;3.03;;;1.10;;
12956;SDS011;6543;48.836;10.092;2023-02-19T12:28:37;1.13;;;0.60;;
12956;SDS011;6543;48.836;10.092;2023-02-19T12:34:12;2.37;;;0.60;;
12956;SDS011;6543;48.836;10.092;2023-02-19T12:36:50;2.43;;;1.10;;
12956;SDS011;6543;48.836;10.092;2023-02-19T12:39:27;2.47;;;0.83;;
12956;SDS011;6543;48.836;10.092;2023-02-19T12:42:05;4.57;;;0.83;;
12956;SDS011;6543;48.836;10.092;2023-02-19T12:44:37;6.43;;;0.63;;
12956;SDS011;6543;48.836;10.092;2023-02-19T12:47:12;6.80;;;0.90;;
12956;SDS011;6543;48.836;10.092;2023-02-19T12:49:43;1.20;;;0.60;;
12956;SDS011;6543;48.836;10.092;2023-02-19T12:52:16;2.03;;;1.00;;
12956;SDS011;6543;48.836;10.092;2023-02-19T12:54:49;2.93;;;0.87;;
12956;SDS011;6543;48.836;10.092;2023-02-19T12:57:19;2.00;;;0.67;;
12956;SDS011;6543;48.836;10.092;2023-02-19T12:59:50;2.53;;;0.90;;
12956;SDS011;6543;48.836;10.092;2023-02-19T13:02:24;1.33;;;0.90;;
12956;SDS011;6543;48.836;10.092;2023-02-19T13:04:55;1.50;;;1.07;;
12956;SDS011;6543;48.836;10.092;2023-02-19T13:07:28;1.40;;;0.63;;
12956;SDS011;6543;48.836;10.092;2023-02-19T13:10:05;1.93;;;0.87;;
12956;SDS011;6543;48.836;10.092;2023-02-19T13:12:44;2.47;;;0.70;;
12956;SDS011;6543;48.836;10.092;2023-02-19T13:15:13;2.33;;;1.20;;
12956;SDS011;6543;48.836;10.092;2023-02-19T13:17:43;1.90;;;0.87;;
12956;SDS011;6543;48.836;10.092;2023-02-19T13:20:14;1.33;;;0.80;;
12956;SDS011;6543;48.836;10.092;2023-02-19T13:22:53;3.73;;;0.77;;
12956;SDS011;6543;48.836;10.092;2023-02-19T13:25:50;3.93;;;0.80;;
12956;SDS011;6543;48.836;10.092;2023-02-19T13:28:39;3.60;;;0.80;;
12956;SDS011;6543;48.836;10.092;2023-02-19T13:31:24;2.27;;;0.77;;
12956;SDS011;6543;48.836;10.092;2023-02-19T13:34:07;2.53;;;0.80;;
12956;SDS011;6543;48.836;10.092;2023-02-19T13:36:45;2.23;;;0.90;;
12956;SDS011;6543;48.836;10.092;2023-02-19T13:39:13;2.53;;;0.63;;
12956;SDS011;6543;48.836;10.092;2023-02-19T13:41:47;1.03;;;0.70;;
12956;SDS011;6543;48.836;10.092;2023-02-19T13:44:16;4.20;;;1.83;;
12956;SDS011;6543;48.836;10.092;2023-02-19T13:46:45;1.43;;;0.90;;
12956;SDS011;6543;48.836;10.092;2023-02-19T13:49:23;3.33;;;1.17;;
12956;SDS011;6543;48.836;10.092;2023-02-19T14:04:44;5.93;;;1.10;;
12956;SDS011;6543;48.836;10.092;2023-02-19T14:07:32;3.57;;;1.10;;
12956;SDS011;6543;48.836;10.092;2023-02-19T14:19:52;2.43;;;0.77;;
12956;SDS011;6543;48.836;10.092;2023-02-19T14:25:37;2.00;;;0.80;;
12956;SDS011;6543;48.836;10.092;2023-02-19T14:28:25;5.23;;;1.00;;
12956;SDS011;6543;48.836;10.092;2023-02-19T14:30:55;0.93;;;0.73;;
12956;SDS011;6543;48.836;10.092;2023-02-19T14:33:25;3.40;;;0.90;;
12956;SDS011;6543;48.836;10.092;2023-02-19T14:35:56;1.27;;;0.67;;
12956;SDS011;6543;48.836;10.092;2023-02-19T14:38:30;1.37;;;0.77;;
12956;SDS011;6543;48.836;10.092;2023-02-19T14:41:02;1.13;;;0.60;;
12956;SDS011;6543;48.836;10.092;2023-02-19T14:43:29;1.63;;;1.07;;
12956;SDS011;6543;48.836;10.092;2023-02-19T14:45:59;2.63;;;0.80;;
12956;SDS011;6543;48.836;10.092;2023-02-19T14:48:30;3.17;;;1.30;;
12956;SDS011;6543;48.836;10.092;2023-02-19T14:51:01;1.37;;;0.87;;
12956;SDS011;6543;48.836;10.092;2023-02-19T14:53:32;3.43;;;1.10;;
12956;SDS011;6543;48.836;10.092;2023-02-19T14:56:03;2.70;;;0.90;;
12956;SDS011;6543;48.836;10.092;2023-02-19T14:58:32;2.20;;;1.00;;
12956;SDS011;6543;48.836;10.092;2023-02-19T15:01:00;1.73;;;0.80;;
12956;SDS011;6543;48.836;10.092;2023-02-19T15:03:30;3.40;;;1.17;;
12956;SDS011;6543;48.836;10.092;2023-02-19T15:06:01;2.17;;;1.23;;
12956;SDS011;6543;48.836;10.092;2023-02-19T15:08:31;2.43;;;1.03;;
12956;SDS011;6543;48.836;10.092;2023-02-19T15:11:02;5.03;;;1.37;;
12956;SDS011;6543;48.836;10.092;2023-02-19T15:13:34;5.90;;;1.40;;
12956;SDS011;6543;48.836;10.092;2023-02-19T15:16:01;2.00;;;1.30;;
12956;SDS011;6543;48.836;10.092;2023-02-19T15:18:28;5.23;;;1.00;;
12956;SDS011;6543;48.836;10.092;2023-02-19T15:21:02;3.90;;;1.10;;
12956;SDS011;6543;48.836;10.092;2023-02-19T15:23:31;3.50;;;1.10;;
12956;SDS011;6543;48.836;10.092;2023-02-19T15:26:00;4.20;;;1.30;;
12956;SDS011;6543;48.836;10.092;2023-02-19T15:28:31;2.80;;;1.63;;
12956;SDS011;6543;48.836;10.092;2023-02-19T15:31:03;3.03;;;1.47;;
12956;SDS011;6543;48.836;10.092;2023-02-19T15:33:32;5.00;;;2.03;;
12956;SDS011;6543;48.836;10.092;2023-02-19T15:35:59;1.30;;;0.90;;
12956;SDS011;6543;48.836;10.092;2023-02-19T15:38:30;3.73;;;1.60;;
12956;SDS011;6543;48.836;10.092;2023-02-19T15:40:58;1.77;;;1.10;;
12956;SDS011;6543;48.836;10.092;2023-02-19T15:43:26;4.03;;;1.53;;
12956;SDS011;6543;48.836;10.092;2023-02-19T15:45:56;4.33;;;1.30;;
12956;SDS011;6543;48.836;10.092;2023-02-19T15:48:28;6.93;;;1.87;;
12956;SDS011;6543;48.836;10.092;2023-02-19T15:51:00;3.37;;;1.73;;